Time;durP1;ratioP1;P1;durP2;ratioP2;P2;SDS_P1;SDS_P2;PMS_P1;PMS_P2;Temp;Humidity;BMP_temperature;BMP_pressure;BME280_temperature;BME280_humidity;BME280_pressure;Samples;Min_cycle;Max_cycle;Signal;HPM_P1;HPM_P2
2022/10/30 00:01:42;;;;;;;;;;;17.40;59.50;;;;;;5048941;28;20130;-80
2022/10/30 00:04:08;;;;;;;;;;;17.30;60.00;;;;;;5049181;28;21529;-80
2022/10/30 00:06:33;;;;;;;;;;;17.10;60.30;;;;;;5048773;28;20304;-80
2022/10/30 00:08:59;;;;;;;;;;;17.10;60.10;;;;;;5048989;28;20608;-80
2022/10/30 00:11:25;;;;;;;;;;;17.00;60.70;;;;;;5048987;28;19921;-80
2022/10/30 00:13:50;;;;;;;;;;;17.40;60.40;;;;;;5049776;28;19927;-80
2022/10/30 00:16:16;;;;;;;;;;;17.40;60.00;;;;;;5031143;28;20384;-80
2022/10/30 00:18:42;;;;;;;;;;;17.40;61.00;;;;;;5050511;28;19917;-80
2022/10/30 00:21:09;;;;;;;;;;;17.20;60.70;;;;;;5030482;28;19948;-80
2022/10/30 00:23:34;;;;;;;;;;;17.30;61.50;;;;;;5048914;28;19920;-80
2022/10/30 00:26:04;;;;;;;;;;;17.20;62.10;;;;;;5048307;28;20298;-80
2022/10/30 00:28:29;;;;;;;;;;;17.10;61.80;;;;;;5030885;28;19916;-80
2022/10/30 00:30:57;;;;;;;;;;;17.20;62.50;;;;;;5048375;28;19967;-80
2022/10/30 00:33:22;;;;;;;;;;;17.10;62.70;;;;;;5048376;28;19917;-80
2022/10/30 00:35:48;;;;;;;;;;;17.10;62.60;;;;;;5029938;28;19973;-82
2022/10/30 00:38:14;;;;;;;;;;;17.20;62.60;;;;;;5048415;28;19951;-81
2022/10/30 00:40:39;;;;;;;;;;;17.10;63.10;;;;;;5048638;28;19921;-82
2022/10/30 00:43:24;;;;;;;;;;;17.00;63.20;;;;;;5030536;28;19913;-82
2022/10/30 00:45:50;;;;;;;;;;;16.90;63.60;;;;;;5047162;28;19924;-82
2022/10/30 00:48:16;;;;;;;;;;;17.00;63.10;;;;;;5048132;28;19924;-82
2022/10/30 00:50:41;;;;;;;;;;;17.10;63.10;;;;;;5047663;28;20372;-82
2022/10/30 00:53:10;;;;;;;;;;;17.00;63.40;;;;;;5048305;28;19939;-82
2022/10/30 00:55:38;;;;;;;;;;;17.10;63.50;;;;;;5048058;28;19924;-82
2022/10/30 00:58:06;;;;;;;;;;;17.00;63.70;;;;;;5046876;28;19931;-81
2022/10/30 01:00:32;;;;;;;;;;;17.20;63.70;;;;;;5050077;28;19996;-81
2022/10/30 01:02:58;;;;;;;;;;;17.10;63.90;;;;;;5048127;28;19913;-84
2022/10/30 01:05:26;;;;;;;;;;;17.20;63.80;;;;;;5029936;28;19921;-84
2022/10/30 01:07:51;;;;;;;;;;;17.10;63.80;;;;;;5027673;28;20497;-82
2022/10/30 01:10:17;;;;;;;;;;;17.00;64.50;;;;;;5029920;28;19916;-82
2022/10/30 01:12:44;;;;;;;;;;;16.90;64.50;;;;;;5029817;28;20006;-83
2022/10/30 01:15:10;;;;;;;;;;;17.00;64.50;;;;;;5048177;28;19936;-82
2022/10/30 01:17:45;;;;;;;;;;;17.10;65.00;;;;;;5029220;28;20031;-80
2022/10/30 01:20:29;;;;;;;;;;;17.00;64.90;;;;;;5047983;28;20410;-80
2022/10/30 01:23:13;;;;;;;;;;;17.10;64.80;;;;;;5047279;28;20035;-82
2022/10/30 01:25:55;;;;;;;;;;;17.10;65.10;;;;;;5047293;28;19932;-81
2022/10/30 01:28:24;;;;;;;;;;;17.00;65.40;;;;;;5047522;28;19951;-83
2022/10/30 01:30:52;;;;;;;;;;;16.90;65.70;;;;;;5041676;28;20101;-80
2022/10/30 01:33:39;;;;;;;;;;;16.80;66.00;;;;;;5046255;28;19917;-83
2022/10/30 01:36:23;;;;;;;;;;;16.80;66.30;;;;;;5040169;28;19916;-84
2022/10/30 01:38:54;;;;;;;;;;;16.40;67.80;;;;;;5047977;28;19971;-82
2022/10/30 01:41:19;;;;;;;;;;;16.00;67.90;;;;;;5046229;28;19916;-84
2022/10/30 01:43:47;;;;;;;;;;;16.00;67.90;;;;;;5047843;28;19913;-84
2022/10/30 01:46:15;;;;;;;;;;;16.00;68.30;;;;;;5047435;28;19921;-81
2022/10/30 01:48:53;;;;;;;;;;;16.10;68.60;;;;;;5046438;28;19920;-82
2022/10/30 01:51:34;;;;;;;;;;;16.00;68.70;;;;;;5047592;28;19919;-82
2022/10/30 01:54:02;;;;;;;;;;;16.10;69.00;;;;;;5029229;28;19916;-82
2022/10/30 01:56:34;;;;;;;;;;;16.30;68.60;;;;;;5047360;28;20360;-82
2022/10/30 01:59:04;;;;;;;;;;;16.30;68.50;;;;;;5047763;28;19928;-84
2022/10/30 02:01:32;;;;;;;;;;;16.70;67.90;;;;;;5029658;28;19931;-86
2022/10/30 02:03:58;;;;;;;;;;;16.70;68.00;;;;;;5023746;28;19924;-86
2022/10/30 02:06:23;;;;;;;;;;;16.60;68.30;;;;;;5029405;28;20394;-87
2022/10/30 02:08:49;;;;;;;;;;;16.50;68.50;;;;;;5047174;28;20763;-82
2022/10/30 02:11:15;;;;;;;;;;;16.30;69.00;;;;;;5046682;28;19921;-82
2022/10/30 02:13:40;;;;;;;;;;;16.40;68.70;;;;;;5047267;28;19917;-83
2022/10/30 02:16:06;;;;;;;;;;;16.40;68.90;;;;;;5046085;28;19924;-82
2022/10/30 02:18:32;;;;;;;;;;;16.50;69.00;;;;;;5051604;28;19944;-83
2022/10/30 02:20:57;;;;;;;;;;;16.60;68.90;;;;;;5033223;28;19963;-82
2022/10/30 02:23:23;;;;;;;;;;;16.50;69.00;;;;;;5051012;28;19952;-82
2022/10/30 02:25:48;;;;;;;;;;;16.40;69.80;;;;;;5050916;28;19931;-83
2022/10/30 02:28:14;;;;;;;;;;;16.30;69.90;;;;;;5051169;28;19917;-82
2022/10/30 02:30:42;;;;;;;;;;;16.40;69.60;;;;;;5050500;28;19917;-83
2022/10/30 02:33:08;;;;;;;;;;;16.50;69.50;;;;;;5050649;28;19913;-85
2022/10/30 02:35:34;;;;;;;;;;;16.50;69.70;;;;;;5050421;28;19917;-86
2022/10/30 02:37:59;;;;;;;;;;;16.50;69.70;;;;;;5032555;28;20300;-84
2022/10/30 02:40:26;;;;;;;;;;;16.70;69.40;;;;;;5032181;28;19939;-85
2022/10/30 02:42:52;;;;;;;;;;;16.70;69.40;;;;;;5032488;28;19927;-83
2022/10/30 02:45:18;;;;;;;;;;;16.50;70.30;;;;;;5050476;28;19920;-84
2022/10/30 02:47:44;;;;;;;;;;;16.10;70.90;;;;;;5050126;28;19983;-83
2022/10/30 02:50:09;;;;;;;;;;;15.90;71.40;;;;;;5031908;28;19920;-83
2022/10/30 02:52:35;;;;;;;;;;;15.80;71.90;;;;;;5050002;28;19913;-82
2022/10/30 02:55:00;;;;;;;;;;;15.80;72.10;;;;;;5049990;28;19921;-81
2022/10/30 02:57:26;;;;;;;;;;;15.50;72.80;;;;;;5050083;28;19917;-81
2022/10/30 02:59:51;;;;;;;;;;;15.40;73.10;;;;;;5050356;28;19986;-81
2022/10/30 03:02:17;;;;;;;;;;;15.40;73.40;;;;;;5049555;28;19987;-81
2022/10/30 03:04:42;;;;;;;;;;;15.50;73.50;;;;;;5049926;28;19921;-82
2022/10/30 03:07:08;;;;;;;;;;;15.60;73.50;;;;;;5049987;28;20470;-81
2022/10/30 03:09:33;;;;;;;;;;;15.60;73.50;;;;;;5031413;28;20544;-81
2022/10/30 03:11:59;;;;;;;;;;;15.80;73.20;;;;;;5049827;28;19921;-81
2022/10/30 03:14:24;;;;;;;;;;;15.80;73.60;;;;;;5049708;28;19963;-82
2022/10/30 03:16:51;;;;;;;;;;;16.00;73.30;;;;;;5050000;28;20012;-83
2022/10/30 03:19:17;;;;;;;;;;;15.80;73.50;;;;;;5054257;28;19982;-82
2022/10/30 03:21:43;;;;;;;;;;;15.60;74.50;;;;;;5049663;28;19917;-82
2022/10/30 03:24:08;;;;;;;;;;;15.50;74.90;;;;;;5050033;28;19939;-81
2022/10/30 03:26:34;;;;;;;;;;;15.50;75.20;;;;;;5031831;28;19921;-82
2022/10/30 03:28:59;;;;;;;;;;;15.30;76.00;;;;;;5049539;28;19917;-82
2022/10/30 03:31:25;;;;;;;;;;;15.50;75.90;;;;;;5049173;28;19998;-82
2022/10/30 03:33:50;;;;;;;;;;;15.70;75.30;;;;;;5050185;28;19913;-82
2022/10/30 03:36:16;;;;;;;;;;;15.60;75.60;;;;;;5049545;28;19913;-80
2022/10/30 03:38:42;;;;;;;;;;;15.60;75.50;;;;;;5049326;28;19916;-81
2022/10/30 03:41:07;;;;;;;;;;;15.50;76.40;;;;;;5048827;28;19916;-81
2022/10/30 03:43:33;;;;;;;;;;;15.70;76.20;;;;;;5050033;28;19913;-80
2022/10/30 03:45:58;;;;;;;;;;;15.60;76.00;;;;;;5049513;28;20425;-81
2022/10/30 03:48:25;;;;;;;;;;;15.50;76.50;;;;;;5049254;28;19916;-81
2022/10/30 03:50:51;;;;;;;;;;;15.60;76.30;;;;;;5049551;28;19939;-81
2022/10/30 03:53:16;;;;;;;;;;;15.60;76.30;;;;;;5031872;28;19912;-81
2022/10/30 03:55:42;;;;;;;;;;;15.60;76.70;;;;;;5048819;28;19927;-81
2022/10/30 03:58:07;;;;;;;;;;;15.50;76.80;;;;;;5031521;28;19986;-80
2022/10/30 04:00:33;;;;;;;;;;;15.40;77.30;;;;;;5049258;28;19919;-80
2022/10/30 04:02:59;;;;;;;;;;;15.50;77.40;;;;;;5048421;28;19960;-80
2022/10/30 04:05:26;;;;;;;;;;;15.50;77.30;;;;;;5049068;28;19959;-81
2022/10/30 04:07:55;;;;;;;;;;;15.50;77.60;;;;;;5048375;28;19925;-81
2022/10/30 04:10:21;;;;;;;;;;;15.40;78.30;;;;;;5048676;28;19942;-81
2022/10/30 04:12:46;;;;;;;;;;;15.40;78.80;;;;;;5048511;28;20624;-82
2022/10/30 04:15:12;;;;;;;;;;;15.40;78.90;;;;;;5048463;28;20002;-82
2022/10/30 04:17:37;;;;;;;;;;;15.40;78.90;;;;;;5052525;28;20055;-82
2022/10/30 04:20:03;;;;;;;;;;;15.30;79.20;;;;;;5049034;28;19913;-82
2022/10/30 04:22:29;;;;;;;;;;;15.20;80.10;;;;;;5049109;28;20680;-82
2022/10/30 04:24:54;;;;;;;;;;;15.20;80.10;;;;;;5030681;28;19917;-81
2022/10/30 04:27:20;;;;;;;;;;;15.30;80.10;;;;;;5049153;28;19916;-82
2022/10/30 04:29:45;;;;;;;;;;;15.40;80.10;;;;;;5049156;28;19912;-81
2022/10/30 04:32:11;;;;;;;;;;;15.60;79.50;;;;;;5049017;28;19917;-81
2022/10/30 04:34:38;;;;;;;;;;;15.60;79.50;;;;;;5030858;28;20475;-84
2022/10/30 04:37:04;;;;;;;;;;;15.70;79.50;;;;;;5031529;28;19919;-84
2022/10/30 04:39:30;;;;;;;;;;;15.60;79.50;;;;;;5048798;28;19921;-84
2022/10/30 04:41:56;;;;;;;;;;;15.70;79.80;;;;;;5048720;28;19919;-86
2022/10/30 04:44:21;;;;;;;;;;;15.80;79.30;;;;;;5048717;28;19920;-81
2022/10/30 04:46:47;;;;;;;;;;;15.70;79.70;;;;;;5048145;28;20672;-81
2022/10/30 04:49:12;;;;;;;;;;;15.60;80.20;;;;;;5048148;28;20673;-82
2022/10/30 04:51:38;;;;;;;;;;;15.60;80.50;;;;;;5047954;28;20380;-81
2022/10/30 04:54:03;;;;;;;;;;;15.50;80.70;;;;;;5048013;28;20642;-81
2022/10/30 04:56:29;;;;;;;;;;;15.50;80.70;;;;;;5029648;28;20765;-81
2022/10/30 04:58:54;;;;;;;;;;;15.30;81.30;;;;;;5048356;28;20170;-83
2022/10/30 05:01:20;;;;;;;;;;;15.10;81.70;;;;;;5047878;28;19917;-84
2022/10/30 05:03:45;;;;;;;;;;;15.00;82.10;;;;;;5047607;28;19916;-83
2022/10/30 05:06:16;;;;;;;;;;;14.90;82.40;;;;;;5047281;28;19920;-84
2022/10/30 05:08:41;;;;;;;;;;;14.80;82.60;;;;;;5029018;28;19943;-83
2022/10/30 05:11:07;;;;;;;;;;;14.70;83.20;;;;;;5047532;28;20078;-83
2022/10/30 05:13:32;;;;;;;;;;;14.60;83.60;;;;;;5047756;28;20012;-85
2022/10/30 05:15:58;;;;;;;;;;;14.50;83.80;;;;;;5047712;28;19924;-84
2022/10/30 05:18:23;;;;;;;;;;;14.60;84.00;;;;;;5051701;28;19974;-83
2022/10/30 05:20:49;;;;;;;;;;;14.90;83.40;;;;;;5047439;28;19920;-85
2022/10/30 05:23:14;;;;;;;;;;;15.10;83.00;;;;;;5048160;28;19970;-83
2022/10/30 05:25:40;;;;;;;;;;;15.10;83.20;;;;;;5047884;28;20423;-83
2022/10/30 05:28:05;;;;;;;;;;;15.00;83.50;;;;;;5047183;28;20008;-83
2022/10/30 05:30:32;;;;;;;;;;;15.10;83.50;;;;;;5047667;28;20023;-83
2022/10/30 05:32:58;;;;;;;;;;;15.20;83.70;;;;;;5045792;28;19974;-82
2022/10/30 05:35:24;;;;;;;;;;;15.20;83.80;;;;;;5048301;28;19913;-82
2022/10/30 05:37:49;;;;;;;;;;;15.20;84.20;;;;;;5046780;28;19974;-81
2022/10/30 05:40:15;;;;;;;;;;;15.20;84.50;;;;;;5047639;28;19947;-85
2022/10/30 05:42:48;;;;;;;;;;;15.20;84.70;;;;;;5047635;28;19916;-83
2022/10/30 05:45:13;;;;;;;;;;;15.10;84.90;;;;;;5016255;28;20372;-83
2022/10/30 05:47:39;;;;;;;;;;;15.00;85.20;;;;;;5029190;28;20007;-80
2022/10/30 05:50:05;;;;;;;;;;;15.00;85.40;;;;;;5030413;28;20758;-83
2022/10/30 05:52:30;;;;;;;;;;;15.00;85.80;;;;;;5029298;28;19975;-85
2022/10/30 05:54:56;;;;;;;;;;;15.00;85.90;;;;;;5032281;28;19913;-84
2022/10/30 05:57:21;;;;;;;;;;;14.80;86.60;;;;;;5051405;28;19924;-88
2022/10/30 05:59:47;;;;;;;;;;;14.70;86.90;;;;;;5051961;28;19917;-82
2022/10/30 06:02:13;;;;;;;;;;;14.60;87.10;;;;;;5055111;28;20415;-93
2022/10/30 06:04:38;;;;;;;;;;;14.50;87.50;;;;;;5039185;28;19909;-91
2022/10/30 06:07:04;;;;;;;;;;;14.50;87.60;;;;;;5052282;28;20015;-90
2022/10/30 06:09:29;;;;;;;;;;;14.50;88.10;;;;;;5052253;28;19928;-89
2022/10/30 06:11:55;;;;;;;;;;;14.60;88.10;;;;;;5035521;28;19923;-91
2022/10/30 06:14:20;;;;;;;;;;;14.70;88.10;;;;;;5035662;28;21343;-89
2022/10/30 06:16:46;;;;;;;;;;;14.60;88.30;;;;;;5035360;28;20111;-91
2022/10/30 06:19:12;;;;;;;;;;;14.60;88.50;;;;;;5038080;28;19944;-91
2022/10/30 06:21:37;;;;;;;;;;;14.60;88.50;;;;;;5039875;28;20474;-94
2022/10/30 06:24:03;;;;;;;;;;;14.60;88.90;;;;;;5035108;28;20027;-88
2022/10/30 06:26:29;;;;;;;;;;;14.70;88.90;;;;;;5033686;28;20473;-88
2022/10/30 06:28:54;;;;;;;;;;;14.70;88.70;;;;;;5033455;28;20027;-83
2022/10/30 06:31:20;;;;;;;;;;;14.90;89.70;;;;;;5033149;28;19917;-83
2022/10/30 06:33:45;;;;;;;;;;;15.00;89.20;;;;;;5051540;28;19917;-86
2022/10/30 06:36:11;;;;;;;;;;;15.10;89.10;;;;;;5051729;28;19916;-93
2022/10/30 06:38:36;;;;;;;;;;;15.40;88.50;;;;;;5035360;28;19909;-92
2022/10/30 06:41:02;;;;;;;;;;;15.50;88.10;;;;;;5035219;28;21227;-91
2022/10/30 06:43:28;;;;;;;;;;;15.60;88.40;;;;;;5051999;28;19913;-87
2022/10/30 06:45:53;;;;;;;;;;;15.70;87.70;;;;;;5032884;28;19923;-87
2022/10/30 06:48:19;;;;;;;;;;;15.70;88.00;;;;;;5050930;28;19951;-84
2022/10/30 06:50:44;;;;;;;;;;;15.50;88.30;;;;;;5033565;28;20582;-81
2022/10/30 06:53:10;;;;;;;;;;;15.30;88.80;;;;;;5051629;28;19991;-82
2022/10/30 06:55:35;;;;;;;;;;;15.40;88.90;;;;;;5050101;28;19924;-82
2022/10/30 06:58:01;;;;;;;;;;;15.50;88.60;;;;;;5050257;28;20011;-81
2022/10/30 07:00:26;;;;;;;;;;;15.60;88.50;;;;;;5032922;28;19959;-81
2022/10/30 07:02:56;;;;;;;;;;;15.80;88.50;;;;;;5033147;28;19962;-79
2022/10/30 07:05:21;;;;;;;;;;;16.10;87.10;;;;;;5031990;28;20361;-81
2022/10/30 07:07:47;;;;;;;;;;;16.60;85.60;;;;;;5050186;28;19917;-81
2022/10/30 07:10:12;;;;;;;;;;;17.20;83.40;;;;;;5049285;28;20007;-84
2022/10/30 07:12:38;;;;;;;;;;;17.40;82.30;;;;;;5050469;28;19916;-85
2022/10/30 07:15:03;;;;;;;;;;;17.70;82.30;;;;;;5049885;28;20720;-92
2022/10/30 07:17:29;;;;;;;;;;;18.00;81.90;;;;;;5028231;28;20829;-89
2022/10/30 07:19:55;;;;;;;;;;;17.90;81.30;;;;;;5032454;28;20392;-93
2022/10/30 07:22:20;;;;;;;;;;;18.00;82.40;;;;;;5051387;28;19928;-87
2022/10/30 07:24:46;;;;;;;;;;;18.30;80.50;;;;;;5032278;28;19947;-83
2022/10/30 07:27:11;;;;;;;;;;;18.40;80.60;;;;;;5031963;28;20012;-79
2022/10/30 07:29:37;;;;;;;;;;;18.60;80.30;;;;;;5050051;28;20439;-80
2022/10/30 07:32:02;;;;;;;;;;;19.10;79.30;;;;;;5019364;28;19924;-81
2022/10/30 07:34:28;;;;;;;;;;;19.20;78.80;;;;;;5020431;28;19913;-79
2022/10/30 07:36:54;;;;;;;;;;;19.40;79.30;;;;;;5023482;28;20452;-80
2022/10/30 07:39:19;;;;;;;;;;;19.70;77.90;;;;;;5041927;28;19943;-80
2022/10/30 07:41:45;;;;;;;;;;;19.70;80.90;;;;;;5042089;28;19943;-79
2022/10/30 07:44:10;;;;;;;;;;;19.70;79.70;;;;;;5033113;28;19919;-81
2022/10/30 07:46:36;;;;;;;;;;;18.90;81.60;;;;;;5040990;28;19924;-81
2022/10/30 07:49:01;;;;;;;;;;;18.90;82.50;;;;;;5042237;28;19912;-79
2022/10/30 07:51:27;;;;;;;;;;;19.30;81.00;;;;;;5044986;28;19917;-81
2022/10/30 07:53:52;;;;;;;;;;;19.60;78.70;;;;;;5043548;28;20021;-84
2022/10/30 07:56:18;;;;;;;;;;;19.60;80.50;;;;;;5049430;28;20003;-83
2022/10/30 07:58:43;;;;;;;;;;;19.20;81.40;;;;;;5047461;28;19952;-87
2022/10/30 08:01:09;;;;;;;;;;;18.90;81.90;;;;;;5021921;28;19964;-92
2022/10/30 08:03:34;;;;;;;;;;;18.50;81.70;;;;;;5029535;28;19913;-89
2022/10/30 08:06:00;;;;;;;;;;;19.10;80.10;;;;;;5049919;28;19920;-91
2022/10/30 08:08:25;;;;;;;;;;;19.50;79.30;;;;;;5031581;28;19999;-87
2022/10/30 08:10:51;;;;;;;;;;;19.80;76.80;;;;;;5047198;28;20340;-86
2022/10/30 08:13:17;;;;;;;;;;;19.90;77.70;;;;;;5054992;28;19948;-91
2022/10/30 08:15:43;;;;;;;;;;;20.00;75.50;;;;;;5039666;28;19924;-96
2022/10/30 08:18:08;;;;;;;;;;;20.60;76.30;;;;;;5036404;28;19935;-93
2022/10/30 08:20:34;;;;;;;;;;;20.90;75.70;;;;;;5051539;28;19912;-89
2022/10/30 08:22:59;;;;;;;;;;;21.50;76.50;;;;;;5033046;28;19976;-92
2022/10/30 08:25:27;;;;;;;;;;;21.50;74.00;;;;;;5050565;28;20460;-91
2022/10/30 08:28:02;;;;;;;;;;;21.70;75.40;;;;;;5025367;28;19956;-89
2022/10/30 08:30:30;;;;;;;;;;;22.20;77.40;;;;;;5044700;28;20106;-87
2022/10/30 08:32:56;;;;;;;;;;;22.50;77.00;;;;;;5020650;28;19952;-87
2022/10/30 08:35:21;;;;;;;;;;;22.80;77.10;;;;;;5025823;28;20471;-88
2022/10/30 08:37:47;;;;;;;;;;;22.50;75.80;;;;;;5012487;28;20008;-87
2022/10/30 08:40:13;;;;;;;;;;;21.90;73.80;;;;;;5029879;28;20052;-88
2022/10/30 08:42:38;;;;;;;;;;;21.30;76.60;;;;;;5049297;28;19913;-87
2022/10/30 08:45:05;;;;;;;;;;;21.60;77.70;;;;;;5034033;28;20015;-89
2022/10/30 08:47:30;;;;;;;;;;;22.10;77.70;;;;;;5049275;28;20616;-81
2022/10/30 08:49:56;;;;;;;;;;;22.50;73.30;;;;;;5049180;28;19920;-82
2022/10/30 08:52:21;;;;;;;;;;;23.10;73.50;;;;;;5048814;28;19927;-80
2022/10/30 08:54:47;;;;;;;;;;;22.50;73.00;;;;;;5048554;28;19919;-82
2022/10/30 08:57:12;;;;;;;;;;;23.20;72.60;;;;;;5048650;28;19959;-81
2022/10/30 08:59:38;;;;;;;;;;;23.30;72.10;;;;;;5047023;28;19952;-82
2022/10/30 09:02:03;;;;;;;;;;;23.00;70.80;;;;;;5047304;28;19944;-80
2022/10/30 09:04:29;;;;;;;;;;;23.60;69.80;;;;;;5038519;28;19955;-82
2022/10/30 09:06:54;;;;;;;;;;;24.20;71.20;;;;;;5044701;28;20470;-82
2022/10/30 09:09:20;;;;;;;;;;;23.80;69.80;;;;;;5048156;28;20347;-81
2022/10/30 09:11:46;;;;;;;;;;;23.10;71.20;;;;;;5047034;28;19920;-82
2022/10/30 09:14:12;;;;;;;;;;;22.90;74.80;;;;;;5048365;28;19913;-83
2022/10/30 09:16:37;;;;;;;;;;;22.60;73.50;;;;;;5047986;28;20400;-83
2022/10/30 09:19:03;;;;;;;;;;;22.00;73.00;;;;;;5052991;28;20383;-82
2022/10/30 09:21:30;;;;;;;;;;;21.30;74.20;;;;;;5046916;28;21767;-81
2022/10/30 09:23:55;;;;;;;;;;;21.10;77.10;;;;;;5024611;28;19917;-80
2022/10/30 09:26:21;;;;;;;;;;;21.50;78.20;;;;;;5047032;28;19996;-84
2022/10/30 09:28:46;;;;;;;;;;;22.00;77.10;;;;;;5029541;28;19920;-81
2022/10/30 09:31:12;;;;;;;;;;;21.90;75.80;;;;;;5046958;28;19928;-81
2022/10/30 09:33:38;;;;;;;;;;;21.80;76.30;;;;;;5047541;28;19924;-81
2022/10/30 09:36:03;;;;;;;;;;;21.60;77.10;;;;;;5047459;28;19912;-82
2022/10/30 09:38:29;;;;;;;;;;;21.70;76.40;;;;;;5029243;28;19920;-83
2022/10/30 09:41:13;;;;;;;;;;;21.80;77.10;;;;;;5046647;28;19924;-82
2022/10/30 09:43:57;;;;;;;;;;;21.60;76.80;;;;;;5047090;28;19923;-81
2022/10/30 09:46:31;;;;;;;;;;;21.30;78.00;;;;;;5046616;28;19974;-81
2022/10/30 09:48:57;;;;;;;;;;;21.30;78.90;;;;;;5044013;28;19913;-81
2022/10/30 09:51:25;;;;;;;;;;;21.90;75.90;;;;;;5045980;28;20006;-80
2022/10/30 09:53:57;;;;;;;;;;;22.20;77.30;;;;;;5047828;28;19923;-81
2022/10/30 09:56:35;;;;;;;;;;;22.00;77.20;;;;;;5047627;28;19954;-82
2022/10/30 09:59:04;;;;;;;;;;;22.10;79.10;;;;;;5030408;28;19913;-82
2022/10/30 10:01:29;;;;;;;;;;;22.00;76.80;;;;;;5042655;28;19916;-82
2022/10/30 10:04:11;;;;;;;;;;;22.30;76.80;;;;;;5048088;28;19920;-84
2022/10/30 10:06:39;;;;;;;;;;;22.30;77.70;;;;;;5020386;28;19924;-83
2022/10/30 10:09:06;;;;;;;;;;;22.50;74.80;;;;;;5047728;28;19917;-82
2022/10/30 10:11:35;;;;;;;;;;;22.60;70.70;;;;;;5048095;28;19985;-84
2022/10/30 10:14:07;;;;;;;;;;;22.20;73.50;;;;;;5047992;28;19928;-82
2022/10/30 10:16:35;;;;;;;;;;;21.90;73.80;;;;;;5047756;28;19952;-81
2022/10/30 10:19:07;;;;;;;;;;;21.80;72.20;;;;;;5053577;28;19916;-80
2022/10/30 10:21:35;;;;;;;;;;;22.00;72.20;;;;;;5047021;28;19955;-79
2022/10/30 10:24:02;;;;;;;;;;;22.40;72.60;;;;;;5033201;28;19920;-79
2022/10/30 10:26:29;;;;;;;;;;;22.70;72.50;;;;;;5028486;28;20111;-78
2022/10/30 10:29:21;;;;;;;;;;;22.30;74.50;;;;;;5047018;28;19920;-81
2022/10/30 10:31:49;;;;;;;;;;;22.00;76.20;;;;;;5042916;28;19918;-80
2022/10/30 10:34:25;;;;;;;;;;;21.80;75.60;;;;;;5046885;28;19963;-82
2022/10/30 10:37:15;;;;;;;;;;;21.70;77.20;;;;;;5046398;28;20312;-81
2022/10/30 10:39:57;;;;;;;;;;;21.80;77.10;;;;;;5013817;28;19990;-81
2022/10/30 10:42:42;;;;;;;;;;;22.00;77.00;;;;;;5048347;28;19970;-81
2022/10/30 10:45:20;;;;;;;;;;;22.40;77.60;;;;;;4989418;28;19917;-81
2022/10/30 10:47:52;;;;;;;;;;;22.80;78.40;;;;;;5039842;28;19916;-81
2022/10/30 10:50:18;;;;;;;;;;;22.70;75.50;;;;;;5044437;28;19917;-81
2022/10/30 10:52:51;;;;;;;;;;;22.40;76.40;;;;;;5046275;28;19938;-80
2022/10/30 10:55:18;;;;;;;;;;;22.20;75.80;;;;;;5048426;28;19917;-80
2022/10/30 10:57:45;;;;;;;;;;;22.30;72.70;;;;;;5032139;28;19962;-80
2022/10/30 11:00:14;;;;;;;;;;;22.20;72.90;;;;;;5031121;28;19975;-80
2022/10/30 11:02:42;;;;;;;;;;;22.30;74.80;;;;;;5050635;28;19989;-82
2022/10/30 11:05:28;;;;;;;;;;;22.50;75.70;;;;;;5049394;28;20790;-81
2022/10/30 11:07:57;;;;;;;;;;;22.50;73.10;;;;;;5032778;28;20711;-81
2022/10/30 11:10:24;;;;;;;;;;;22.20;74.00;;;;;;5031267;28;19917;-82
2022/10/30 11:12:50;;;;;;;;;;;22.20;72.70;;;;;;5032048;28;20690;-82
2022/10/30 11:15:15;;;;;;;;;;;22.20;72.90;;;;;;5050870;28;19924;-80
2022/10/30 11:17:44;;;;;;;;;;;22.40;74.60;;;;;;5052372;28;19919;-81
2022/10/30 11:20:42;;;;;;;;;;;22.40;73.20;;;;;;5050658;28;19928;-80
2022/10/30 11:23:26;;;;;;;;;;;22.40;75.80;;;;;;4978766;28;19916;-81
2022/10/30 11:25:52;;;;;;;;;;;22.40;74.60;;;;;;5049724;28;19924;-80
2022/10/30 11:28:30;;;;;;;;;;;22.30;74.00;;;;;;5031888;28;19917;-82
2022/10/30 11:31:15;;;;;;;;;;;22.20;74.10;;;;;;5048957;28;19952;-82
2022/10/30 11:33:41;;;;;;;;;;;22.10;73.90;;;;;;5030045;28;19917;-82
2022/10/30 11:36:09;;;;;;;;;;;22.00;74.60;;;;;;5048807;28;19954;-82
2022/10/30 11:38:35;;;;;;;;;;;21.90;75.10;;;;;;5049562;28;20493;-85
2022/10/30 11:41:01;;;;;;;;;;;21.80;72.40;;;;;;5043548;28;20296;-81
2022/10/30 11:43:26;;;;;;;;;;;21.80;73.20;;;;;;5049341;28;19913;-82
2022/10/30 11:45:52;;;;;;;;;;;21.70;71.00;;;;;;5049060;28;19928;-83
2022/10/30 11:48:27;;;;;;;;;;;21.50;71.20;;;;;;5049685;28;19913;-84
2022/10/30 11:50:55;;;;;;;;;;;21.60;73.70;;;;;;5049551;28;20082;-86
2022/10/30 11:53:22;;;;;;;;;;;21.40;71.50;;;;;;5048816;28;19919;-82
2022/10/30 11:55:48;;;;;;;;;;;21.50;72.60;;;;;;5048818;28;19913;-82
2022/10/30 11:58:23;;;;;;;;;;;21.60;75.00;;;;;;5049342;28;19917;-81
2022/10/30 12:00:57;;;;;;;;;;;21.80;74.40;;;;;;5030826;28;20781;-79
2022/10/30 12:03:33;;;;;;;;;;;21.80;74.00;;;;;;5045116;28;19917;-86
2022/10/30 12:06:17;;;;;;;;;;;21.70;75.40;;;;;;5046938;28;20419;-82
2022/10/30 12:09:11;;;;;;;;;;;21.80;74.80;;;;;;5041331;28;19992;-82
2022/10/30 12:11:38;;;;;;;;;;;21.80;73.60;;;;;;5024946;28;19917;-82
2022/10/30 12:14:04;;;;;;;;;;;21.70;73.40;;;;;;5048942;28;20663;-86
2022/10/30 12:16:31;;;;;;;;;;;21.70;76.00;;;;;;5048286;28;19983;-80
2022/10/30 12:19:02;;;;;;;;;;;21.80;76.70;;;;;;5030247;28;19913;-81
2022/10/30 12:21:29;;;;;;;;;;;21.70;73.90;;;;;;5030037;28;19921;-81
2022/10/30 12:23:56;;;;;;;;;;;21.60;75.50;;;;;;5048683;28;19913;-80
2022/10/30 12:26:22;;;;;;;;;;;21.70;75.10;;;;;;5030146;28;19964;-82
2022/10/30 12:28:56;;;;;;;;;;;21.70;74.10;;;;;;5035071;28;20028;-83
2022/10/30 12:31:29;;;;;;;;;;;21.80;73.90;;;;;;5031797;28;20578;-83
2022/10/30 12:34:24;;;;;;;;;;;21.80;73.20;;;;;;5031955;28;20548;-84
2022/10/30 12:37:03;;;;;;;;;;;21.80;72.00;;;;;;4998675;28;19916;-80
2022/10/30 12:39:43;;;;;;;;;;;21.90;74.60;;;;;;5038455;28;19917;-82
2022/10/30 12:42:11;;;;;;;;;;;21.90;74.40;;;;;;5042461;28;19994;-83
2022/10/30 12:45:06;;;;;;;;;;;22.00;75.00;;;;;;5044957;28;19920;-83
2022/10/30 12:47:37;;;;;;;;;;;21.90;72.80;;;;;;5022147;28;19916;-81
2022/10/30 12:50:29;;;;;;;;;;;22.00;73.50;;;;;;5043369;28;19921;-85
2022/10/30 12:53:04;;;;;;;;;;;21.90;72.40;;;;;;5023872;28;19923;-81
2022/10/30 12:55:32;;;;;;;;;;;21.80;71.50;;;;;;5045743;28;19956;-78
2022/10/30 12:58:17;;;;;;;;;;;21.90;71.50;;;;;;5029481;28;19924;-79
2022/10/30 13:00:55;;;;;;;;;;;21.90;74.70;;;;;;5046933;28;19923;-80
2022/10/30 13:03:41;;;;;;;;;;;21.90;76.30;;;;;;5032702;28;20700;-79
2022/10/30 13:06:07;;;;;;;;;;;21.70;72.30;;;;;;5038035;28;19921;-80
2022/10/30 13:08:35;;;;;;;;;;;21.70;74.20;;;;;;5047736;28;19970;-81
2022/10/30 13:11:03;;;;;;;;;;;21.80;73.50;;;;;;5042713;28;20439;-81
2022/10/30 13:13:32;;;;;;;;;;;21.80;73.50;;;;;;5043688;28;19970;-79
2022/10/30 13:15:59;;;;;;;;;;;21.70;73.20;;;;;;5028718;28;19980;-79
2022/10/30 13:18:25;;;;;;;;;;;21.70;72.80;;;;;;5049205;28;20039;-79
2022/10/30 13:21:09;;;;;;;;;;;21.60;71.00;;;;;;5047303;28;19948;-79
2022/10/30 13:23:47;;;;;;;;;;;21.60;70.60;;;;;;5047341;28;19923;-79
2022/10/30 13:26:31;;;;;;;;;;;21.50;70.30;;;;;;5040094;28;19924;-81
2022/10/30 13:28:59;;;;;;;;;;;21.50;68.90;;;;;;5047960;28;19920;-82
2022/10/30 13:31:41;;;;;;;;;;;21.60;71.10;;;;;;5047815;28;20691;-81
2022/10/30 13:34:21;;;;;;;;;;;21.50;69.90;;;;;;5047814;28;20001;-78
2022/10/30 13:36:54;;;;;;;;;;;21.50;69.20;;;;;;5033953;28;20019;-81
2022/10/30 13:39:29;;;;;;;;;;;21.50;70.20;;;;;;5033145;28;20441;-80
2022/10/30 13:41:54;;;;;;;;;;;21.50;70.20;;;;;;5044739;28;19917;-80
2022/10/30 13:44:39;;;;;;;;;;;21.40;70.40;;;;;;5047230;28;20325;-79
2022/10/30 13:47:24;;;;;;;;;;;21.40;70.50;;;;;;5047118;28;20463;-80
2022/10/30 13:49:49;;;;;;;;;;;21.40;70.10;;;;;;5047421;28;19919;-81
2022/10/30 13:52:16;;;;;;;;;;;21.40;71.50;;;;;;5047783;28;19913;-81
2022/10/30 13:54:51;;;;;;;;;;;21.30;71.20;;;;;;5046165;28;19917;-81
2022/10/30 13:57:26;;;;;;;;;;;21.40;71.80;;;;;;5046860;28;19923;-80
2022/10/30 13:59:55;;;;;;;;;;;21.30;70.40;;;;;;5046528;28;20148;-81
2022/10/30 14:02:20;;;;;;;;;;;21.20;71.00;;;;;;5036277;28;20300;-81
2022/10/30 14:04:55;;;;;;;;;;;21.20;72.00;;;;;;5041962;28;20038;-81
2022/10/30 14:07:27;;;;;;;;;;;21.10;71.20;;;;;;5024584;28;20327;-81
2022/10/30 14:10:19;;;;;;;;;;;21.30;71.00;;;;;;5039573;28;19917;-80
2022/10/30 14:13:03;;;;;;;;;;;21.40;70.60;;;;;;5032593;28;19917;-80
2022/10/30 14:15:28;;;;;;;;;;;21.40;71.20;;;;;;5035434;28;20004;-80
2022/10/30 14:18:12;;;;;;;;;;;21.30;70.90;;;;;;5033389;28;20028;-83
2022/10/30 14:20:39;;;;;;;;;;;21.10;72.00;;;;;;5035240;28;19917;-84
2022/10/30 14:23:12;;;;;;;;;;;21.00;71.50;;;;;;5043176;28;19924;-82
2022/10/30 14:25:37;;;;;;;;;;;21.00;71.90;;;;;;5051062;28;19921;-79